createdAt,value
2022-08-20T00:00:36.278Z,17.90
2022-08-20T00:03:07.080Z,17.90
2022-08-20T00:05:37.440Z,17.90
2022-08-20T00:08:06.376Z,17.90
2022-08-20T00:10:37.731Z,17.80
2022-08-20T00:13:08.631Z,17.80
2022-08-20T00:15:39.924Z,17.80
2022-08-20T00:18:09.108Z,17.80
2022-08-20T00:20:46.021Z,17.80
2022-08-20T00:23:15.118Z,17.70
2022-08-20T00:25:44.067Z,17.60
2022-08-20T00:28:13.101Z,17.60
2022-08-20T00:30:45.841Z,17.50
2022-08-20T00:33:17.584Z,17.50
2022-08-20T00:35:56.596Z,17.40
2022-08-20T00:38:25.847Z,17.40
2022-08-20T00:40:56.622Z,17.30
2022-08-20T00:43:35.683Z,17.20
2022-08-20T00:46:08.996Z,17.30
2022-08-20T00:48:39.563Z,17.20
2022-08-20T00:51:11.270Z,17.10
2022-08-20T00:53:40.698Z,17.10
2022-08-20T00:56:10.625Z,17.00
2022-08-20T00:58:41.232Z,17.00
2022-08-20T01:01:11.147Z,17.00
2022-08-20T01:03:43.432Z,17.00
2022-08-20T01:06:12.541Z,16.90
2022-08-20T01:08:42.665Z,16.90
2022-08-20T01:11:13.010Z,16.90
2022-08-20T01:13:42.685Z,16.80
2022-08-20T01:16:19.959Z,16.90
2022-08-20T01:18:49.701Z,16.80
2022-08-20T01:21:22.818Z,16.90
2022-08-20T01:23:57.024Z,16.80
2022-08-20T06:12:06.508Z,16.80
2022-08-20T06:14:34.893Z,18.40
2022-08-20T06:17:07.625Z,18.60
2022-08-20T06:19:38.582Z,18.70
2022-08-20T06:22:17.915Z,18.40
2022-08-20T06:24:54.123Z,18.10
2022-08-20T06:27:23.436Z,18.10
2022-08-20T06:29:53.365Z,18.50
2022-08-20T06:32:28.735Z,19.00
2022-08-20T06:37:33.081Z,19.70
2022-08-20T06:40:04.090Z,20.10
2022-08-20T06:42:32.621Z,19.90
2022-08-20T06:45:04.856Z,20.00
2022-08-20T06:47:33.477Z,20.30
2022-08-20T06:50:03.205Z,19.90
2022-08-20T06:53:03.133Z,20.40
2022-08-20T06:55:19.993Z,20.90
2022-08-20T06:57:48.895Z,21.00
2022-08-20T07:00:20.738Z,21.10
2022-08-20T07:02:50.283Z,21.30
2022-08-20T07:05:20.075Z,21.60
2022-08-20T07:07:51.129Z,21.60
2022-08-20T07:10:21.042Z,22.10
2022-08-20T07:12:51.118Z,22.00
2022-08-20T07:15:21.263Z,21.60
2022-08-20T07:17:56.404Z,21.60
2022-08-20T07:20:32.771Z,22.60
2022-08-20T07:23:01.690Z,22.10
2022-08-20T07:25:31.819Z,21.70
2022-08-20T07:28:02.802Z,22.00
2022-08-20T07:30:56.049Z,21.80
2022-08-20T07:33:26.240Z,22.20
2022-08-20T07:35:58.485Z,21.70
2022-08-20T07:38:28.264Z,21.70
2022-08-20T07:40:58.471Z,20.70
2022-08-20T07:43:27.654Z,20.70
2022-08-20T07:46:00.784Z,20.60
2022-08-20T07:48:32.537Z,20.40
2022-08-20T07:51:04.561Z,20.30
2022-08-20T07:53:35.667Z,19.90
2022-08-20T07:56:05.929Z,19.80
2022-08-20T07:58:35.860Z,19.80
2022-08-20T08:01:05.152Z,19.80
2022-08-20T08:03:41.108Z,19.80
2022-08-20T08:06:29.585Z,19.90
2022-08-20T08:09:03.175Z,19.90
2022-08-20T08:11:33.638Z,19.80
2022-08-20T08:14:05.314Z,19.90
2022-08-20T08:16:36.155Z,20.10
2022-08-20T08:19:08.625Z,19.90
2022-08-20T08:21:41.282Z,20.00
2022-08-20T08:24:12.746Z,20.00
2022-08-20T08:26:43.146Z,20.10
2022-08-20T08:29:12.113Z,20.20
2022-08-20T08:31:41.103Z,20.00
2022-08-20T08:34:09.641Z,20.10
2022-08-20T08:36:39.231Z,19.90
2022-08-20T08:39:07.817Z,20.10
2022-08-20T08:41:38.049Z,20.50
2022-08-20T08:44:09.458Z,20.90
2022-08-20T08:46:41.769Z,21.50
2022-08-20T08:49:13.194Z,21.30
2022-08-20T08:51:46.298Z,21.20
2022-08-20T08:54:17.865Z,21.20
2022-08-20T08:56:49.692Z,20.90
2022-08-20T08:59:20.893Z,20.80
2022-08-20T09:01:55.920Z,20.80
2022-08-20T09:04:32.564Z,20.70
2022-08-20T09:07:04.414Z,20.50
2022-08-20T09:09:36.952Z,20.70
2022-08-20T09:12:07.796Z,20.80
2022-08-20T09:14:36.432Z,21.50
2022-08-20T09:17:05.410Z,22.10
2022-08-20T09:19:34.316Z,23.10
2022-08-20T09:22:10.302Z,23.20
2022-08-20T09:24:38.829Z,23.60
2022-08-20T09:27:07.660Z,23.80
2022-08-20T09:29:36.360Z,23.60
2022-08-20T09:32:09.431Z,23.20
2022-08-20T09:34:39.043Z,23.40
2022-08-20T09:37:10.338Z,23.40
2022-08-20T09:39:44.691Z,23.20
2022-08-20T09:42:15.372Z,22.80
2022-08-20T09:44:43.509Z,22.50
2022-08-20T09:47:11.918Z,22.00
2022-08-20T09:49:41.004Z,21.80
2022-08-20T09:52:14.963Z,21.50
2022-08-20T09:54:46.201Z,21.10
2022-08-20T09:59:43.729Z,20.90
2022-08-20T10:02:11.887Z,20.50
2022-08-20T10:54:49.420Z,20.40
2022-08-20T10:57:20.020Z,22.70
2022-08-20T10:59:50.687Z,22.80
2022-08-20T11:02:21.416Z,22.90
2022-08-20T11:04:50.593Z,22.60
2022-08-20T11:07:22.319Z,22.70
2022-08-20T11:10:14.000Z,22.90
2022-08-20T11:12:43.597Z,23.10
2022-08-20T11:15:14.885Z,22.80
2022-08-20T11:17:44.678Z,22.50
2022-08-20T11:20:15.246Z,22.30
2022-08-20T11:22:43.430Z,22.40
2022-08-20T11:25:13.260Z,22.50
2022-08-20T11:27:44.228Z,22.10
2022-08-20T11:30:16.422Z,22.50
2022-08-20T11:32:44.699Z,22.40
2022-08-20T11:35:40.942Z,23.40
2022-08-20T11:38:02.710Z,23.90
2022-08-20T11:40:32.662Z,23.40
2022-08-20T11:43:17.454Z,24.00
2022-08-20T11:45:48.219Z,24.20
2022-08-20T11:48:16.968Z,23.60
2022-08-20T11:50:45.530Z,23.60
2022-08-20T11:53:14.987Z,23.50
2022-08-20T11:55:44.742Z,24.50
2022-08-20T12:13:08.550Z,25.80
2022-08-20T12:15:37.760Z,23.30
2022-08-20T12:18:07.750Z,23.10
2022-08-20T12:20:36.702Z,23.20
2022-08-20T12:23:05.460Z,23.20
2022-08-20T12:25:34.039Z,23.00
2022-08-20T12:28:02.265Z,22.50
2022-08-20T12:30:32.541Z,22.50
2022-08-20T13:28:03.854Z,22.30
2022-08-20T13:30:33.219Z,23.00
2022-08-20T13:33:01.503Z,23.00
2022-08-20T13:37:59.641Z,22.90
2022-08-20T13:40:28.269Z,22.90
2022-08-20T13:42:56.624Z,22.70
2022-08-20T13:47:55.803Z,22.60
2022-08-20T13:50:26.461Z,22.30
